createdAt,value
2019-04-26T00:02:09.934Z,62.10
2019-04-26T00:04:43.028Z,59.75
2019-04-26T00:07:14.680Z,57.93
2019-04-26T00:09:45.608Z,66.97
2019-04-26T00:12:41.502Z,59.90
2019-04-26T00:15:40.467Z,58.00
2019-04-26T00:18:11.830Z,60.52
2019-04-26T00:20:45.687Z,58.28
2019-04-26T00:23:16.408Z,61.08
2019-04-26T00:25:46.735Z,57.98
2019-04-26T00:28:17.637Z,57.30
2019-04-26T00:30:47.949Z,57.17
2019-04-26T00:33:19.346Z,55.65
2019-04-26T00:35:49.954Z,65.92
2019-04-26T00:38:20.477Z,63.28
2019-04-26T00:40:52.951Z,56.25
2019-04-26T00:43:24.708Z,58.10
2019-04-26T00:45:56.833Z,59.05
2019-04-26T00:48:27.476Z,55.80
2019-04-26T00:50:58.410Z,62.83
2019-04-26T00:53:31.903Z,54.10
2019-04-26T00:56:04.129Z,57.03
2019-04-26T00:58:37.388Z,53.65
2019-04-26T01:01:07.679Z,63.58
2019-04-26T01:03:38.107Z,55.08
2019-04-26T01:06:10.747Z,56.92
2019-04-26T01:08:41.456Z,59.25
2019-04-26T01:11:11.741Z,58.90
2019-04-26T01:13:42.703Z,50.23
2019-04-26T01:16:13.084Z,61.30
2019-04-26T01:18:45.177Z,58.35
2019-04-26T01:21:19.078Z,60.38
2019-04-26T01:23:51.897Z,64.53
2019-04-26T01:26:30.194Z,54.25
2019-04-26T01:29:05.060Z,62.43
2019-04-26T01:31:40.239Z,59.40
2019-04-26T01:34:10.857Z,58.23
2019-04-26T01:36:43.360Z,65.92
2019-04-26T01:39:17.727Z,57.65
2019-04-26T01:42:03.110Z,68.22
2019-04-26T01:44:45.982Z,60.70
2019-04-26T01:47:16.966Z,64.70
2019-04-26T01:49:47.679Z,61.00
2019-04-26T01:52:21.362Z,61.18
2019-04-26T01:54:52.661Z,71.43
2019-04-26T01:57:29.343Z,67.10
2019-04-26T02:00:07.363Z,62.33
2019-04-26T02:02:46.109Z,58.33
2019-04-26T02:05:22.570Z,61.15
2019-04-26T02:07:53.989Z,57.73
2019-04-26T02:10:25.246Z,68.37
2019-04-26T02:12:57.331Z,61.00
2019-04-26T02:15:31.228Z,63.90
2019-04-26T02:18:05.618Z,70.33
2019-04-26T02:21:03.411Z,64.70
2019-04-26T02:23:42.861Z,62.65
2019-04-26T02:26:35.030Z,62.07
2019-04-26T02:29:10.662Z,62.60
2019-04-26T02:31:44.287Z,58.13
2019-04-26T02:34:15.982Z,62.83
2019-04-26T02:36:58.098Z,61.20
2019-04-26T02:39:23.558Z,56.05
2019-04-26T02:41:57.612Z,58.13
2019-04-26T02:44:40.021Z,62.30
2019-04-26T02:47:51.305Z,56.80
2019-04-26T02:50:32.430Z,59.18
2019-04-26T02:53:20.662Z,64.42
2019-04-26T02:56:08.326Z,55.88
2019-04-26T02:59:03.571Z,67.37
2019-04-26T03:01:35.955Z,62.73
2019-04-26T03:04:06.538Z,60.73
2019-04-26T03:06:41.155Z,64.65
2019-04-26T03:09:15.065Z,59.60
2019-04-26T03:11:48.671Z,62.08
2019-04-26T03:14:38.504Z,62.43
2019-04-26T03:17:30.726Z,59.30
2019-04-26T03:20:05.476Z,59.27
2019-04-26T03:22:54.753Z,68.70
2019-04-26T03:25:59.918Z,58.90
2019-04-26T03:28:44.662Z,64.53
2019-04-26T03:31:29.250Z,58.92
2019-04-26T03:34:23.517Z,60.88
2019-04-26T03:37:40.502Z,56.53
2019-04-26T03:40:28.201Z,59.90
2019-04-26T03:43:27.458Z,59.95
2019-04-26T03:46:30.943Z,64.58
2019-04-26T03:49:24.247Z,58.80
2019-04-26T03:52:22.093Z,62.85
2019-04-26T03:54:56.047Z,64.20
2019-04-26T03:57:40.271Z,58.73
2019-04-26T04:00:33.299Z,55.03
2019-04-26T04:03:28.302Z,57.70
2019-04-26T04:06:01.929Z,55.30
2019-04-26T04:08:42.883Z,60.17
2019-04-26T04:11:17.786Z,52.15
2019-04-26T04:14:14.724Z,58.28
2019-04-26T04:17:18.474Z,54.73
2019-04-26T04:20:23.092Z,61.35
2019-04-26T04:23:01.526Z,62.15
2019-04-26T04:25:39.322Z,58.13
2019-04-26T04:29:03.388Z,53.40
2019-04-26T04:31:41.673Z,59.90
2019-04-26T04:34:18.321Z,54.65
2019-04-26T04:36:51.916Z,55.70
2019-04-26T04:39:31.264Z,51.68
2019-04-26T04:42:29.197Z,48.58
2019-04-26T04:45:53.164Z,51.37
2019-04-26T04:48:50.589Z,51.80
2019-04-26T04:51:54.005Z,53.20
2019-04-26T04:54:29.909Z,51.28
2019-04-26T04:57:18.637Z,51.75
2019-04-26T05:00:31.106Z,48.83
2019-04-26T05:03:33.454Z,56.95
2019-04-26T05:06:33.448Z,50.85
2019-04-26T05:09:12.717Z,52.25
2019-04-26T05:12:19.481Z,48.92
2019-04-26T05:15:00.210Z,49.13
2019-04-26T05:18:26.528Z,56.02
2019-04-26T05:21:30.428Z,56.50
2019-04-26T05:24:19.451Z,53.13
2019-04-26T05:27:39.102Z,47.13
2019-04-26T05:30:33.462Z,55.85
2019-04-26T05:33:35.731Z,54.35
2019-04-26T05:36:24.415Z,48.13
2019-04-26T05:39:42.157Z,46.05
2019-04-26T05:43:09.875Z,48.25
2019-04-26T05:46:32.985Z,43.90
2019-04-26T05:50:09.633Z,42.62
2019-04-26T05:53:03.207Z,40.95
2019-04-26T05:56:28.191Z,43.30
2019-04-26T05:59:15.957Z,36.28
2019-04-26T06:02:38.245Z,34.50
2019-04-26T06:05:26.926Z,34.18
2019-04-26T06:08:43.955Z,32.13
2019-04-26T06:11:24.661Z,35.83
2019-04-26T06:14:21.497Z,39.18
2019-04-26T06:17:35.005Z,33.92
2019-04-26T06:20:54.129Z,27.85
2019-04-26T06:24:04.644Z,31.45
2019-04-26T06:27:14.427Z,29.52
2019-04-26T06:29:54.129Z,29.63
2019-04-26T06:32:34.929Z,31.15
2019-04-26T06:35:13.458Z,28.30
2019-04-26T06:38:19.820Z,31.50
2019-04-26T06:41:21.873Z,31.23
2019-04-26T06:44:03.195Z,34.90
2019-04-26T06:47:24.682Z,27.62
2019-04-26T06:50:17.993Z,24.25
2019-04-26T06:52:58.144Z,29.07
2019-04-26T06:58:38.283Z,29.00
2019-04-26T07:01:35.365Z,25.92
2019-04-26T07:04:23.872Z,31.62
2019-04-26T07:07:32.974Z,27.20
2019-04-26T07:10:13.342Z,23.85
2019-04-26T07:12:58.701Z,25.45
2019-04-26T07:16:22.456Z,21.57
2019-04-26T07:19:21.449Z,24.43
2019-04-26T07:22:35.503Z,26.65
2019-04-26T07:25:32.562Z,30.23
2019-04-26T07:28:17.825Z,22.95
2019-04-26T07:31:15.528Z,23.50
2019-04-26T07:34:28.777Z,22.13
2019-04-26T07:37:41.078Z,19.90
2019-04-26T07:40:50.292Z,27.82
2019-04-26T07:43:45.981Z,21.75
2019-04-26T07:46:37.332Z,26.80
2019-04-26T07:49:57.551Z,25.57
2019-04-26T07:52:54.227Z,19.98
2019-04-26T07:55:52.011Z,19.70
2019-04-26T07:59:27.582Z,27.45
2019-04-26T08:02:41.449Z,19.02
2019-04-26T08:05:19.791Z,20.30
2019-04-26T08:07:56.475Z,17.82
2019-04-26T08:10:37.050Z,17.42
2019-04-26T08:13:11.381Z,22.32
2019-04-26T08:16:19.951Z,19.62
2019-04-26T08:18:58.821Z,15.85
2019-04-26T08:21:34.828Z,22.98
2019-04-26T08:24:27.961Z,15.53
2019-04-26T08:27:22.540Z,16.82
2019-04-26T08:29:50.488Z,22.90
2019-04-26T08:32:28.148Z,24.40
2019-04-26T08:35:16.054Z,23.55
2019-04-26T08:37:55.397Z,33.53
2019-04-26T08:40:31.316Z,19.30
2019-04-26T08:43:15.590Z,18.75
2019-04-26T08:46:03.060Z,21.68
2019-04-26T08:48:45.256Z,15.35
2019-04-26T08:51:20.729Z,20.27
2019-04-26T08:53:52.957Z,18.10
2019-04-26T08:56:28.498Z,18.82
2019-04-26T08:59:03.908Z,21.52
2019-04-26T09:01:47.110Z,22.45
2019-04-26T09:04:28.403Z,24.18
2019-04-26T09:07:04.843Z,21.57
2019-04-26T09:09:37.143Z,25.27
2019-04-26T09:12:22.507Z,19.52
2019-04-26T09:14:52.429Z,20.10
2019-04-26T09:17:22.851Z,18.57
2019-04-26T09:19:53.219Z,17.50
2019-04-26T09:22:34.709Z,18.15
2019-04-26T09:25:30.253Z,16.62
2019-04-26T09:28:28.327Z,20.80
2019-04-26T09:31:19.774Z,19.30
2019-04-26T09:33:51.404Z,24.63
2019-04-26T09:36:21.720Z,16.50
2019-04-26T09:38:53.189Z,22.73
2019-04-26T09:41:26.587Z,20.25
2019-04-26T09:44:10.820Z,15.80
2019-04-26T09:46:48.450Z,20.85
2019-04-26T09:49:44.442Z,19.75
2019-04-26T09:52:18.984Z,18.95
2019-04-26T09:54:49.659Z,19.37
2019-04-26T09:57:20.330Z,18.52
2019-04-26T09:59:50.630Z,25.95
2019-04-26T10:02:22.808Z,22.15
2019-04-26T10:04:54.641Z,27.95
2019-04-26T10:07:25.282Z,19.70
2019-04-26T10:09:56.474Z,23.92
2019-04-26T10:12:39.193Z,25.55
2019-04-26T10:15:28.113Z,16.67
2019-04-26T10:17:59.019Z,17.90
2019-04-26T10:20:30.819Z,14.00
2019-04-26T10:23:01.356Z,16.40
2019-04-26T10:25:33.721Z,18.20
2019-04-26T10:28:04.120Z,19.90
2019-04-26T10:30:34.510Z,19.62
2019-04-26T10:33:05.035Z,17.75
2019-04-26T10:35:40.631Z,15.23
2019-04-26T10:38:13.016Z,17.90
2019-04-26T10:40:43.313Z,26.42
2019-04-26T10:43:15.305Z,16.07
2019-04-26T10:45:53.590Z,20.70
2019-04-26T10:48:17.674Z,18.17
2019-04-26T10:50:48.269Z,16.55
2019-04-26T10:53:34.295Z,18.32
2019-04-26T10:56:33.922Z,22.62
2019-04-26T10:59:12.903Z,23.95
2019-04-26T11:01:43.300Z,19.73
2019-04-26T11:04:15.776Z,24.47
2019-04-26T11:06:46.170Z,16.48
2019-04-26T11:09:17.561Z,13.88
2019-04-26T11:11:47.890Z,15.13
2019-04-26T11:14:22.355Z,14.38
2019-04-26T11:16:53.960Z,16.95
2019-04-26T11:19:26.755Z,16.57
2019-04-26T11:21:57.804Z,15.40
2019-04-26T11:24:29.135Z,23.47
2019-04-26T11:26:59.480Z,24.60
2019-04-26T11:29:30.945Z,17.25
2019-04-26T11:32:04.285Z,17.15
2019-04-26T11:34:34.748Z,20.80
2019-04-26T11:37:13.494Z,16.67
2019-04-26T11:39:43.076Z,19.77
2019-04-26T11:42:13.504Z,16.17
2019-04-26T11:44:44.646Z,12.58
2019-04-26T11:47:15.203Z,15.32
2019-04-26T11:49:49.976Z,27.37
2019-04-26T11:52:20.257Z,18.35
2019-04-26T11:54:51.225Z,14.25
2019-04-26T11:57:22.748Z,16.07
2019-04-26T11:59:53.077Z,17.92
2019-04-26T12:02:24.983Z,13.03
2019-04-26T12:05:22.545Z,17.20
2019-04-26T12:08:06.520Z,16.37
2019-04-26T12:10:40.412Z,14.95
2019-04-26T12:13:11.331Z,14.10
2019-04-26T12:15:43.771Z,18.05
2019-04-26T12:18:13.731Z,21.80
2019-04-26T12:20:44.471Z,18.87
2019-04-26T12:23:20.505Z,21.85
2019-04-26T12:25:49.738Z,20.35
2019-04-26T12:28:20.695Z,24.32
2019-04-26T12:30:54.136Z,18.55
2019-04-26T12:33:23.051Z,18.07
2019-04-26T12:35:57.173Z,18.02
2019-04-26T12:38:28.439Z,20.50
2019-04-26T12:40:59.796Z,18.45
2019-04-26T12:43:30.169Z,16.82
2019-04-26T12:46:27.082Z,24.82
2019-04-26T12:48:58.039Z,15.65
2019-04-26T12:51:29.183Z,17.35
2019-04-26T12:54:03.767Z,15.75
2019-04-26T12:56:32.773Z,25.12
2019-04-26T12:59:07.251Z,22.75
2019-04-26T13:01:42.654Z,18.17
2019-04-26T13:04:11.607Z,25.90
2019-04-26T13:06:47.252Z,29.00
2019-04-26T13:09:21.985Z,25.52
2019-04-26T13:12:29.842Z,31.65
2019-04-26T13:15:35.752Z,20.27
2019-04-26T13:18:07.274Z,23.90
2019-04-26T13:20:39.122Z,22.25
2019-04-26T13:23:10.436Z,21.25
2019-04-26T13:25:41.259Z,22.75
2019-04-26T13:28:15.707Z,20.35
2019-04-26T13:30:44.918Z,23.62
2019-04-26T13:33:15.243Z,18.27
2019-04-26T13:36:01.962Z,20.95
2019-04-26T13:38:18.476Z,16.80
2019-04-26T13:40:50.871Z,17.05
2019-04-26T13:43:22.661Z,23.10
2019-04-26T13:46:11.324Z,18.77
2019-04-26T13:48:50.292Z,19.73
2019-04-26T13:51:22.587Z,22.32
2019-04-26T13:53:54.338Z,18.48
2019-04-26T13:56:25.330Z,20.65
2019-04-26T13:58:58.366Z,24.57
2019-04-26T14:01:28.071Z,23.62
2019-04-26T14:04:02.519Z,18.75
2019-04-26T14:06:30.801Z,26.00
2019-04-26T14:09:03.301Z,20.90
2019-04-26T14:11:35.443Z,17.05
2019-04-26T14:14:05.821Z,18.98
2019-04-26T14:16:36.571Z,21.07
2019-04-26T14:19:14.874Z,17.05
2019-04-26T14:21:38.943Z,14.83
2019-04-26T14:24:34.965Z,15.93
2019-04-26T14:27:27.334Z,20.40
2019-04-26T14:29:57.929Z,20.50
2019-04-26T14:32:30.032Z,14.63
2019-04-26T14:35:01.862Z,19.85
2019-04-26T14:37:34.929Z,17.60
2019-04-26T14:40:16.760Z,17.80
2019-04-26T14:42:46.043Z,19.30
2019-04-26T14:45:23.170Z,22.35
2019-04-26T14:47:47.421Z,20.35
2019-04-26T14:50:17.851Z,13.72
2019-04-26T14:52:53.518Z,18.15
2019-04-26T14:55:24.227Z,26.17
2019-04-26T14:57:54.841Z,18.45
2019-04-26T15:00:30.278Z,23.40
2019-04-26T15:03:12.299Z,25.72
2019-04-26T15:06:00.892Z,17.77
2019-04-26T15:08:34.142Z,22.20
2019-04-26T15:11:05.093Z,24.25
2019-04-26T15:13:40.554Z,18.85
2019-04-26T15:16:11.750Z,18.92
2019-04-26T15:18:42.885Z,16.45
2019-04-26T15:21:13.378Z,17.92
2019-04-26T15:23:43.675Z,20.40
2019-04-26T15:26:14.044Z,21.00
2019-04-26T15:28:50.040Z,24.77
2019-04-26T15:31:21.600Z,21.80
2019-04-26T15:33:52.798Z,32.03
2019-04-26T15:36:23.533Z,21.45
2019-04-26T15:38:54.249Z,28.07
2019-04-26T15:41:34.893Z,28.90
2019-04-26T15:44:15.460Z,30.45
2019-04-26T15:46:56.463Z,33.00
2019-04-26T15:49:39.409Z,20.75
2019-04-26T15:52:09.757Z,21.82
2019-04-26T15:54:42.499Z,21.80
2019-04-26T15:57:13.122Z,23.62
2019-04-26T15:59:43.517Z,23.77
2019-04-26T16:02:13.843Z,26.52
2019-04-26T16:04:47.388Z,28.80
2019-04-26T16:07:27.817Z,20.30
2019-04-26T16:09:57.335Z,28.10
2019-04-26T16:12:27.625Z,20.92
2019-04-26T16:14:58.998Z,28.98
2019-04-26T16:17:30.384Z,22.32
2019-04-26T16:20:04.627Z,24.72
2019-04-26T16:22:34.958Z,30.65
2019-04-26T16:25:06.946Z,29.30
2019-04-26T16:27:40.388Z,28.67
2019-04-26T16:30:37.432Z,26.42
2019-04-26T16:33:10.084Z,60.12
2019-04-26T16:35:42.118Z,22.05
2019-04-26T16:38:30.257Z,28.10
2019-04-26T16:41:00.626Z,29.07
2019-04-26T16:43:37.629Z,29.82
2019-04-26T16:46:04.126Z,37.03
2019-04-26T16:48:34.434Z,27.98
2019-04-26T16:51:08.316Z,25.32
2019-04-26T16:53:52.124Z,32.05
2019-04-26T16:56:09.664Z,27.22
2019-04-26T16:58:44.999Z,33.08
2019-04-26T17:01:15.200Z,24.75
2019-04-26T17:03:48.152Z,30.25
2019-04-26T17:06:18.234Z,28.47
2019-04-26T17:08:54.204Z,29.12
2019-04-26T17:11:22.785Z,29.85
2019-04-26T17:13:56.776Z,31.60
2019-04-26T17:16:25.687Z,31.87
2019-04-26T17:18:59.526Z,27.22
2019-04-26T17:21:34.809Z,36.40
2019-04-26T17:24:17.820Z,33.92
2019-04-26T17:26:51.317Z,33.08
2019-04-26T17:29:21.637Z,30.30
2019-04-26T17:31:52.271Z,37.60
2019-04-26T17:34:28.803Z,30.65
2019-04-26T17:36:55.049Z,32.73
2019-04-26T17:39:27.216Z,37.83
2019-04-26T17:41:57.509Z,41.98
2019-04-26T17:44:28.382Z,37.83
2019-04-26T17:47:02.020Z,31.42
2019-04-26T17:49:34.487Z,36.15
2019-04-26T17:52:03.757Z,31.23
2019-04-26T17:54:46.040Z,34.27
2019-04-26T17:57:08.834Z,32.25
2019-04-26T17:59:45.224Z,36.93
2019-04-26T18:02:20.562Z,37.40
2019-04-26T18:04:44.203Z,36.15
2019-04-26T18:07:37.540Z,31.02
2019-04-26T18:09:47.438Z,30.12
2019-04-26T18:12:20.616Z,31.52
2019-04-26T18:14:51.128Z,30.52
2019-04-26T18:17:41.013Z,36.93
2019-04-26T18:20:30.149Z,34.95
2019-04-26T18:23:05.580Z,32.48
2019-04-26T18:25:36.418Z,34.67
2019-04-26T18:28:08.709Z,38.08
2019-04-26T18:30:40.357Z,29.48
2019-04-26T18:33:17.588Z,36.80
2019-04-26T18:35:49.260Z,35.03
2019-04-26T18:38:20.868Z,34.98
2019-04-26T18:41:06.567Z,36.45
2019-04-26T18:43:24.437Z,38.78
2019-04-26T18:45:58.639Z,35.88
2019-04-26T18:48:28.660Z,32.17
2019-04-26T18:50:59.107Z,29.37
2019-04-26T18:54:05.043Z,29.95
2019-04-26T18:56:40.496Z,36.25
2019-04-26T18:59:11.774Z,35.95
2019-04-26T19:01:42.135Z,31.60
2019-04-26T19:04:15.529Z,33.73
2019-04-26T19:06:46.340Z,34.75
2019-04-26T19:09:18.557Z,34.63
2019-04-26T19:11:49.923Z,42.95
2019-04-26T19:14:51.467Z,32.73
2019-04-26T19:17:33.815Z,38.50
2019-04-26T19:20:25.823Z,36.83
2019-04-26T19:22:57.968Z,33.05
2019-04-26T19:25:40.543Z,32.20
2019-04-26T19:28:08.227Z,32.13
2019-04-26T19:30:40.117Z,35.38
2019-04-26T19:33:16.545Z,32.60
2019-04-26T19:35:47.233Z,35.80
2019-04-26T19:38:15.585Z,37.08
2019-04-26T19:40:48.068Z,30.52
2019-04-26T19:43:30.178Z,39.73
2019-04-26T19:46:23.392Z,38.30
2019-04-26T19:49:15.205Z,34.65
2019-04-26T19:52:04.843Z,32.98
2019-04-26T19:54:39.285Z,39.42
2019-04-26T19:57:23.785Z,37.53
2019-04-26T19:59:54.316Z,39.65
2019-04-26T20:02:36.225Z,41.05
2019-04-26T20:05:02.456Z,42.33
2019-04-26T20:07:33.381Z,35.10
2019-04-26T20:10:06.252Z,38.08
2019-04-26T20:12:38.202Z,37.60
2019-04-26T20:15:15.356Z,35.55
2019-04-26T20:17:43.444Z,35.78
2019-04-26T20:20:20.820Z,36.70
2019-04-26T20:22:51.540Z,38.23
2019-04-26T20:25:26.444Z,40.60
2019-04-26T20:27:59.882Z,39.58
2019-04-26T20:31:05.899Z,40.08
2019-04-26T20:33:34.960Z,41.18
2019-04-26T20:36:05.329Z,38.75
2019-04-26T20:38:42.582Z,37.70
2019-04-26T20:41:08.062Z,41.80
2019-04-26T20:43:45.616Z,31.50
2019-04-26T20:46:15.219Z,44.83
2019-04-26T20:48:43.280Z,36.63
2019-04-26T20:51:14.255Z,41.13
2019-04-26T20:53:44.949Z,41.05
2019-04-26T20:56:18.521Z,37.90
2019-04-26T20:58:57.408Z,43.30
2019-04-26T21:01:27.008Z,41.20
2019-04-26T21:03:57.818Z,33.75
2019-04-26T21:06:29.367Z,35.25
2019-04-26T21:09:03.359Z,36.33
2019-04-26T21:11:37.155Z,38.85
2019-04-26T21:14:12.329Z,44.58
2019-04-26T21:16:49.475Z,40.23
2019-04-26T21:19:19.056Z,43.30
2019-04-26T21:21:51.876Z,39.35
2019-04-26T21:24:23.700Z,38.38
2019-04-26T21:27:11.641Z,38.42
2019-04-26T21:30:21.482Z,40.88
2019-04-26T21:33:15.369Z,45.15
2019-04-26T21:36:05.926Z,37.53
2019-04-26T21:38:51.023Z,43.40
2019-04-26T21:41:26.334Z,42.00
2019-04-26T21:43:58.595Z,39.75
2019-04-26T21:46:29.307Z,40.78
2019-04-26T21:49:00.894Z,43.83
2019-04-26T21:51:34.052Z,42.58
2019-04-26T21:54:07.052Z,49.00
2019-04-26T21:56:37.619Z,42.80
2019-04-26T21:59:08.048Z,40.57
2019-04-26T22:01:38.421Z,40.92
2019-04-26T22:04:13.276Z,38.85
2019-04-26T22:06:51.223Z,49.55
2019-04-26T22:09:35.038Z,47.10
2019-04-26T22:12:05.204Z,45.43
2019-04-26T22:14:37.126Z,42.45
2019-04-26T22:17:16.128Z,46.68
2019-04-26T22:19:53.463Z,49.38
2019-04-26T22:22:30.396Z,43.80
2019-04-26T22:25:01.000Z,47.25
2019-04-26T22:27:31.584Z,40.12
2019-04-26T22:30:03.311Z,50.12
2019-04-26T22:32:35.647Z,47.03
2019-04-26T22:35:06.220Z,49.25
2019-04-26T22:37:36.558Z,42.87
2019-04-26T22:40:10.592Z,44.57
2019-04-26T22:42:42.143Z,42.87
2019-04-26T22:45:39.590Z,42.08
2019-04-26T22:48:19.180Z,43.93
2019-04-26T22:50:52.018Z,46.28
2019-04-26T22:53:21.452Z,45.47
2019-04-26T22:55:53.585Z,42.50
2019-04-26T22:58:25.606Z,44.55
2019-04-26T23:00:58.527Z,51.97
2019-04-26T23:03:28.528Z,40.80
2019-04-26T23:05:58.914Z,47.43
2019-04-26T23:08:30.716Z,47.33
2019-04-26T23:11:08.768Z,50.67
2019-04-26T23:14:06.357Z,45.87
2019-04-26T23:17:04.146Z,43.37
2019-04-26T23:19:33.465Z,42.50
2019-04-26T23:22:04.604Z,41.30
2019-04-26T23:24:35.953Z,41.23
2019-04-26T23:27:06.343Z,42.67
2019-04-26T23:29:36.669Z,45.13
2019-04-26T23:32:06.937Z,38.83
2019-04-26T23:34:37.538Z,48.10
2019-04-26T23:37:09.256Z,43.03
2019-04-26T23:39:44.471Z,43.93
2019-04-26T23:42:17.561Z,43.93
2019-04-26T23:44:48.437Z,44.27
2019-04-26T23:47:23.729Z,45.00
2019-04-26T23:49:56.990Z,43.73
2019-04-26T23:52:26.589Z,49.07
2019-04-26T23:54:59.324Z,42.83
2019-04-26T23:57:31.366Z,46.20
